ElWiki

From s23
Revision as of 23:11, 18 January 2007 by imported>RobiH (Full update of automated table section)
Jump to navigation Jump to search

ElWiki(.com) is a Mediawiki-based wiki hive where users can create their own Wikis for free.

"ElWiki is a collection of Wiki-based knowledgebases on a variery of subjects. Users may create a Wiki on any subject - and we'll take care of configuring, hosting and maintaining the site free-of-charge!"

List of elwiki.com Wikis

External Source, dynamically sortable to any criteria, self-updating every six hours by cronjob

External Source, generated wikisyntax, which manually is being pasted below

No. Name Good Total Edits Views Admins Users Images Stub Ratio Updated
1 altrail 2970 4994 14779 120969 6 26 241 0.59 2007-01-18 20:13:09
2 htown 862 2803 6477 100689 15 44 381 0.31 2007-01-18 20:11:58
3 313 816 2733 13562 460328 6 234 168 0.30 2007-01-18 20:14:10
4 earthenring 767 3588 9075 183028 12 296 805 0.21 2007-01-18 20:10:39
5 thoriumbrotherhood 687 3096 9632 200181 3 311 799 0.22 2007-01-18 20:07:56
6 potd 618 2867 14374 467539 5 504 266 0.22 2007-01-18 20:07:57
7 CARAW 583 2086 5344 123860 3 24 0 0.28 2007-01-18 20:13:15
8 guildopedia 554 2559 12786 404495 5 445 390 0.22 2007-01-18 20:06:46
9 speedrun 527 2363 4348 52483 4 50 65 0.22 2007-01-18 20:06:50
10 pardus 386 2418 3997 125324 4 48 485 0.16 2007-01-18 20:09:47
11 ookeria 380 1785 1694 16216 1 8 0 0.21 2007-01-18 20:11:26
12 tensores 325 1797 1962 26364 1 16 72 0.18 2007-01-18 20:14:27
13 YAC 325 1694 1585 14319 1 2 31 0.19 2007-01-18 20:14:48
14 mata 311 2080 2786 24323 2 10 231 0.15 2007-01-18 20:14:38
15 Ether 264 1671 2232 42451 1 24 15 0.16 2007-01-18 20:05:52
16 samsgreatpage 219 1657 2125 15180 3 15 84 0.13 2007-01-18 20:14:40
17 MythDrannor 195 1658 2028 24893 1 52 103 0.12 2007-01-18 20:12:55
18 Roleplay 178 1632 1936 9831 2 8 96 0.11 2007-01-18 20:14:44
19 gamesradar 176 1606 1699 38816 1 75 14 0.11 2007-01-18 20:09:20
20 cybercheetah 172 1652 826 4946 0 5 58 0.10 2007-01-18 20:09:50
21 twinpeaks 160 1467 400 7249 1 4 9 0.11 2007-01-18 20:10:40
22 schools 152 1622 1086 487877 3 18 4 0.09 2007-01-18 20:13:37
23 elothtes 151 1430 164 1932 1 2 0 0.11 2007-01-18 20:09:37
24 hetregister 146 1522 865 4602 1 5 0 0.10 2007-01-18 20:11:04
25 drak24 135 1618 1684 7493 1 2 87 0.08 2007-01-18 20:14:33
26 ldales 117 1410 248 4808 1 6 2 0.08 2007-01-18 20:05:18
27 draman-ka 115 1511 1823 8515 2 5 62 0.08 2007-01-18 20:06:58
28 gloveshack 115 1504 1063 10751 1 9 17 0.08 2007-01-18 20:09:53
29 officialhistoryofookeria 112 1438 225 2738 1 4 0 0.08 2007-01-18 20:08:38
30 drelwiki 109 1475 561 4209 1 6 9 0.07 2007-01-18 20:12:02
31 musicblogwiki 108 1583 2114 128259 1 71 17 0.07 2007-01-18 20:12:34
32 bsbwiki 107 1515 1230 20551 4 16 22 0.07 2007-01-18 20:11:11
33 cthulhu 106 1433 873 4115 1 2 1 0.07 2007-01-18 20:11:16
34 loomis 103 1456 747 32811 1 16 19 0.07 2007-01-18 20:05:17
35 fode 101 1438 448 8816 1 8 3 0.07 2007-01-18 20:13:56
36 shinra 96 1457 510 5435 1 15 8 0.07 2007-01-18 20:12:54
37 law 93 1409 222 1947 1 1 7 0.07 2007-01-18 20:10:26
38 galaxyofchaos 89 1439 337 32835 2 10 0 0.06 2007-01-18 20:05:58
39 aahcwiki 86 1487 734 8783 4 27 34 0.06 2007-01-18 20:10:09
40 mywiki 82 1506 621 3300 1 5 82 0.05 2007-01-18 20:13:16
41 Earthraiders 80 1376 166 1346 1 1 0 0.06 2007-01-18 20:15:20
42 hpfanfic 80 1371 131 3019 1 3 0 0.06 2007-01-18 20:10:11
43 TheAAHC 77 1456 435 7047 1 14 35 0.05 2007-01-18 20:05:40
44 korngeek 73 1359 142 1581 2 3 0 0.05 2007-01-18 20:11:02
45 area9 70 1446 463 3109 1 3 85 0.05 2007-01-18 20:06:31
46 thewiki 68 1402 869 6662 1 2 12 0.05 2007-01-18 20:07:19
47 rulezmania 67 1474 929 9553 2 7 2 0.05 2007-01-18 20:12:50
48 sunik 67 1366 181 3765 1 5 0 0.05 2007-01-18 20:06:59
49 classdwiki 66 1769 3041 23649 3 29 236 0.04 2007-01-18 20:05:26
50 d30 57 1438 681 9281 1 5 37 0.04 2007-01-18 20:14:46
51 makeagokart 57 1432 885 17182 2 4 31 0.04 2007-01-18 20:13:10
52 MessageBoards 57 1402 350 4691 1 13 3 0.04 2007-01-18 20:14:42
53 psyklopedin 56 1440 695 11034 0 23 19 0.04 2007-01-18 20:08:03
54 ltc 55 1356 230 3303 1 3 9 0.04 2007-01-18 20:08:04
55 geo 54 1357 363 4941 2 5 6 0.04 2007-01-18 20:12:19
56 readordiewiki 53 1483 695 27296 2 17 104 0.04 2007-01-18 20:10:43
57 Alternates 52 1357 293 2392 1 1 5 0.04 2007-01-18 20:10:01
58 scarlettspiderg 52 1347 161 2429 1 2 2 0.04 2007-01-18 20:10:00
59 powerrangers 50 1341 203 1541 1 4 0 0.04 2007-01-18 20:10:42
60 sports 47 1361 384 7944 1 8 18 0.03 2007-01-18 20:08:18
61 uwsa 46 1390 805 11197 1 8 14 0.03 2007-01-18 20:09:48
62 lugiaboydx 46 1364 391 4479 1 35 28 0.03 2007-01-18 20:14:02
63 wikidmb 45 1370 223 1364 1 3 0 0.03 2007-01-18 20:06:08
64 starsquid77 45 1340 313 4225 1 1 0 0.03 2007-01-18 20:09:09
65 mjversion 41 1371 370 3389 1 3 17 0.03 2007-01-18 20:06:17
66 Zachio 36 1373 199 1863 2 6 4 0.03 2007-01-18 20:08:37
67 upthehill 36 1350 311 4908 1 5 17 0.03 2007-01-18 20:14:22
68 humor 36 1322 113 1835 1 2 0 0.03 2007-01-18 20:13:11
69 NV2D 35 1417 1312 20125 26 31 15 0.02 2007-01-18 20:06:24
70 forgottenhour 33 1349 268 2593 1 3 0 0.02 2007-01-18 20:07:49
71 pokemonmaps 33 1323 813 3018 1 1 1 0.02 2007-01-18 20:07:35
72 jazzngar 32 1319 128 1330 1 1 1 0.02 2007-01-18 20:14:52
73 avinalde 31 1322 154 1338 1 1 0 0.02 2007-01-18 20:14:50
74 newfiction 30 1338 542 4368 1 2 5 0.02 2007-01-18 20:13:22
75 gmasterz 30 1333 195 2091 1 6 10 0.02 2007-01-18 20:13:35
76 MKsJunction 30 1329 185 2195 1 5 1 0.02 2007-01-18 20:11:14
77 smalltown 30 1315 57 931 2 2 0 0.02 2007-01-18 20:13:39
78 dewire 27 1333 109 731 1 1 2 0.02 2007-01-18 20:05:38
79 lifeisfree 26 1338 584 2608 1 4 1 0.02 2007-01-18 20:14:37
80 moviepedia 25 1382 246 2863 1 3 28 0.02 2007-01-18 20:15:08
81 nintendobeneluxpedia 25 1322 146 3580 1 12 2 0.02 2007-01-18 20:06:55
82 rotowiki 25 1313 169 1240 1 2 5 0.02 2007-01-18 20:11:39
83 galaxyural 24 1327 205 1340 1 1 5 0.02 2007-01-18 20:06:49
84 salar 24 1315 367 1527 1 1 3 0.02 2007-01-18 20:05:35
85 extreem-gfx 23 1397 334 6293 4 12 7 0.02 2007-01-18 20:10:34
86 strangefellows 23 1353 260 4800 1 3 20 0.02 2007-01-18 20:14:32
87 Hablife 23 1330 530 3560 1 3 0 0.02 2007-01-18 20:13:21
88 amirul 23 1321 122 2305 1 2 5 0.02 2007-01-18 20:12:04
89 wikilost 23 1305 39 2592 1 2 0 0.02 2007-01-18 20:12:28
90 vmkinfo 22 1425 887 8407 6 10 5 0.02 2007-01-18 20:11:48
91 walterplayton 22 1349 1543 17677 1 14 25 0.02 2007-01-18 20:08:31
92 zeeblot 22 1316 93 1329 1 2 1 0.02 2007-01-18 20:14:56
93 SpaceConflict 22 1304 118 1928 1 4 0 0.02 2007-01-18 20:07:15
94 vios 21 1375 230 2193 1 2 66 0.02 2007-01-18 20:13:36
95 amgwiki 21 1344 389 4177 4 7 13 0.02 2007-01-18 20:07:16
96 strenzsap 21 1331 195 1576 2 8 23 0.02 2007-01-18 20:14:43
97 plutohome 21 1325 233 4632 1 9 8 0.02 2007-01-18 20:06:54
98 wikimusement 21 1318 60 821 1 2 2 0.02 2007-01-18 20:06:06
99 wildeboerwiki 20 1402 370 2394 1 2 40 0.01 2007-01-18 20:07:18
100 holmesey 20 1330 241 3407 1 3 6 0.02 2007-01-18 20:13:12
101 guide 20 1321 117 2243 1 2 1 0.02 2007-01-18 20:09:26
102 knoxwiki 19 1349 274 4547 2 8 26 0.01 2007-01-18 20:08:40
103 fats 19 1346 224 2890 3 5 11 0.01 2007-01-18 20:12:08
104 fission 19 1344 251 1123 2 2 5 0.01 2007-01-18 20:08:20
105 soundtrek 19 1323 180 2105 1 3 24 0.01 2007-01-18 20:12:52
106 ibrain 19 1307 56 611 1 2 0 0.01 2007-01-18 20:06:00
107 vt-talk 18 1353 411 3356 3 10 10 0.01 2007-01-18 20:05:25
108 hr 18 1311 59 963 1 3 2 0.01 2007-01-18 20:10:07
109 verdigriscampaign 17 1321 207 1260 1 1 0 0.01 2007-01-18 20:08:58
110 bluejdnb 16 1382 1070 4010 1 7 37 0.01 2007-01-18 20:08:12
111 jmatrix 16 1341 349 1936 1 1 16 0.01 2007-01-18 20:13:06
112 yourgamingwiki 16 1331 183 2372 4 5 5 0.01 2007-01-18 20:12:12
113 isterenge 16 1327 186 3847 1 3 24 0.01 2007-01-18 20:15:06
114 leftbehind 15 1299 74 583 1 1 4 0.01 2007-01-18 20:09:02
115 recombinance 15 1297 34 1147 1 1 0 0.01 2007-01-18 20:05:37
116 autofill 14 1302 41 548 1 1 0 0.01 2007-01-18 20:06:33
117 negativehorizon 13 1316 71 1963 1 1 0 0.01 2007-01-18 20:12:58
118 balthwiki 13 1315 95 1078 2 2 0 0.01 2007-01-18 20:14:54
119 fhorj 13 1298 47 909 1 2 0 0.01 2007-01-18 20:09:57
120 arhitecti 13 1295 151 1157 1 9 1 0.01 2007-01-18 20:10:04
121 errpg 12 1323 228 3377 2 4 1 0.01 2007-01-18 20:07:24
122 1018chronicles 12 1307 94 1019 1 5 2 0.01 2007-01-18 20:13:46
123 twomonn 12 1297 84 786 1 2 5 0.01 2007-01-18 20:10:45
124 a4a 12 1295 134 1033 1 6 1 0.01 2007-01-18 20:11:32
125 linksextremismus 12 1294 59 547 2 2 2 0.01 2007-01-18 20:07:58
126 corinthians 12 1291 17 496 1 1 1 0.01 2007-01-18 20:09:55
127 rawshooter 11 1359 1048 53843 1 62 39 0.01 2007-01-18 20:11:22
128 tinytimrob 11 1351 294 2140 1 4 10 0.01 2007-01-18 20:08:42
129 mbrunngraber 11 1324 230 1374 1 2 32 0.01 2007-01-18 20:14:53
130 jsf 11 1314 207 2447 2 3 15 0.01 2007-01-18 20:13:28
131 itmanual 11 1311 181 1506 1 2 2 0.01 2007-01-18 20:06:52
132 OneChurch 11 1296 47 427 1 1 0 0.01 2007-01-18 20:14:41
133 xenia 11 1296 67 705 1 3 2 0.01 2007-01-18 20:07:50
134 runescape 10 1331 225 1700 1 4 13 0.01 2007-01-18 20:06:57
135 trackersnw 10 1322 230 5405 1 3 0 0.01 2007-01-18 20:14:03
136 debianhelp 10 1305 75 1046 1 1 5 0.01 2007-01-18 20:10:44
137 IIA 10 1299 240 2975 1 7 0 0.01 2007-01-18 20:08:48
138 hicksville 10 1299 72 682 1 2 3 0.01 2007-01-18 20:12:17
139 k5a 10 1298 41 664 1 2 3 0.01 2007-01-18 20:10:32
140 anserona 10 1295 131 797 1 2 0 0.01 2007-01-18 20:14:28
141 thepaper 10 1293 260 1485 1 2 0 0.01 2007-01-18 20:13:29
142 classdchill 9 1335 155 1591 2 7 16 0.01 2007-01-18 20:09:22
143 joesrandomwiki 9 1318 152 2039 1 3 15 0.01 2007-01-18 20:10:10
144 wikicheese 9 1310 85 1258 1 3 4 0.01 2007-01-18 20:07:33
145 xavier 9 1306 90 1150 1 6 4 0.01 2007-01-18 20:13:40
146 warbears 9 1305 59 821 1 3 11 0.01 2007-01-18 20:10:17
147 pierye 9 1305 51 734 1 2 1 0.01 2007-01-18 20:08:01
148 richiepedia 9 1299 22 586 1 1 1 0.01 2007-01-18 20:10:41
149 SAMwiki 9 1299 51 2319 1 1 5 0.01 2007-01-18 20:14:05
150 esqunited 9 1296 78 1112 1 2 0 0.01 2007-01-18 20:09:54
151 shaneo632 9 1293 45 581 1 1 0 0.01 2007-01-18 20:15:05
152 winestudent 8 1323 470 3053 1 3 13 0.01 2007-01-18 20:05:51
153 243 8 1303 139 1399 1 2 7 0.01 2007-01-18 20:06:40
154 saturnos 8 1300 54 646 1 1 6 0.01 2007-01-18 20:10:03
155 vacuumsystems 8 1292 91 466 1 1 3 0.01 2007-01-18 20:09:25
156 mzbloodgods 7 1345 242 1263 1 6 17 0.01 2007-01-18 20:07:42
157 sovereign 7 1308 70 1039 1 2 4 0.01 2007-01-18 20:09:45
158 tyork 7 1303 158 1356 1 2 0 0.01 2007-01-18 20:12:26
159 redwolvx 7 1298 61 1037 1 2 2 0.01 2007-01-18 20:12:56
160 dragonfly 7 1295 27 573 1 1 0 0.01 2007-01-18 20:09:03
161 Astrobattle 6 1386 397 3971 1 8 72 0.00 2007-01-18 20:11:54
162 LUEsers 6 1330 139 4143 1 33 3 0.00 2007-01-18 20:13:48
163 dariacon 6 1315 159 1817 1 3 1 0.00 2007-01-18 20:13:18
164 Tankmania 6 1314 251 3665 1 11 4 0.00 2007-01-18 20:14:21
165 drtaylor 6 1312 153 1227 1 3 11 0.00 2007-01-18 20:08:39
166 fanfiki 6 1305 76 730 1 4 0 0.00 2007-01-18 20:14:07
167 athena 6 1301 170 1403 1 8 3 0.00 2007-01-18 20:05:34
168 neforsaken 6 1299 76 579 1 1 0 0.00 2007-01-18 20:12:59
169 exsamen 6 1297 99 1588 1 8 0 0.00 2007-01-18 20:10:35
170 bemani 6 1294 62 858 1 2 9 0.00 2007-01-18 20:14:04
171 killerstradesite 6 1291 50 494 1 2 0 0.00 2007-01-18 20:14:57
172 methacton 5 1314 79 834 1 5 3 0.00 2007-01-18 20:12:15
173 gfaqs 5 1311 80 1735 1 4 1 0.00 2007-01-18 20:13:54
174 songstowearpantsto 5 1306 91 1223 3 7 1 0.00 2007-01-18 20:15:19
175 supermariospritecomics 5 1303 104 686 1 2 1 0.00 2007-01-18 20:10:36
176 almightyryu 5 1300 209 2864 1 1 6 0.00 2007-01-18 20:13:14
177 canrural 5 1298 58 1252 1 1 0 0.00 2007-01-18 20:09:21
178 2wheelwiki 5 1298 74 1014 1 7 3 0.00 2007-01-18 20:14:30
179 zeldapedia 5 1296 121 981 1 11 3 0.00 2007-01-18 20:08:55
180 mvillemo 5 1294 236 812 1 2 0 0.00 2007-01-18 20:14:36
181 theoryrocks 5 1291 39 451 1 1 0 0.00 2007-01-18 20:11:52
182 ParagonHeroes 5 1289 13 592 1 2 6 0.00 2007-01-18 20:06:34
183 truthandjustice 5 1287 20 244 1 1 0 0.00 2007-01-18 20:13:19
184 bedazzledmorons 5 1286 22 581 1 2 0 0.00 2007-01-18 20:06:30
185 ventures 5 1284 13 336 1 2 0 0.00 2007-01-18 20:10:06
186 onepiece 4 1284 62 619 1 1 0 0.00 2007-01-18 20:06:18
187 ueaunderground 2 1319 793 14616 2 17 21 0.00 2007-01-18 20:07:41
188 Everything 1 1297 41 548 1 4 11 0.00 2007-01-18 20:14:51
189 3296anarchy 0 1301 91 767 1 2 0 0.00 2007-01-18 20:09:52
190 wiki 0 1290 162 2404 1 2 3 0.00 2007-01-18 20:13:17
191 rldswiki 0 1284 297 1823 1 3 0 0.00 2007-01-18 20:10:12
192 inoonaj 0 1279 104 860 1 1 0 0.00 2007-01-18 20:09:30

Grand Total

Articles Total Edits Admins Users Images
16 832 279 038 168 833 320 3 204 6 244